createdAt,value
2018-09-01T00:04:54.520Z,1012.2
2018-09-01T00:14:56.256Z,1012.1
2018-09-01T00:24:58.323Z,1012.2
2018-09-01T00:35:00.269Z,1012.2
2018-09-01T00:45:02.329Z,1012.3
2018-09-01T00:55:04.567Z,1012.2
2018-09-01T01:05:06.200Z,1012.3
2018-09-01T01:15:07.940Z,1012.3
2018-09-01T01:25:10.567Z,1012.3
2018-09-01T01:35:12.699Z,1012.3
2018-09-01T01:45:14.510Z,1012.3
2018-09-01T01:55:16.525Z,1012.3
2018-09-01T02:05:18.328Z,1012.4
2018-09-01T02:15:20.399Z,1012.5
2018-09-01T02:25:22.194Z,1012.5
2018-09-01T02:35:22.842Z,1012.6
2018-09-01T02:45:24.707Z,1012.6
2018-09-01T02:55:26.728Z,1012.6
2018-09-01T03:05:28.653Z,1012.7
2018-09-01T03:15:30.282Z,1012.7
2018-09-01T03:25:32.179Z,1012.7
2018-09-01T03:35:34.169Z,1012.7
2018-09-01T03:45:35.866Z,1012.7
2018-09-01T03:55:37.632Z,1012.7
2018-09-01T04:05:39.559Z,1012.6
2018-09-01T04:15:41.327Z,1012.7
2018-09-01T04:25:42.960Z,1012.6
2018-09-01T04:35:44.769Z,1012.7
2018-09-01T04:45:46.444Z,1012.8
2018-09-01T04:55:47.927Z,1012.9
2018-09-01T05:05:50.131Z,1013
2018-09-01T05:15:52.427Z,1013.2
2018-09-01T05:25:54.444Z,1013.2
2018-09-01T05:35:56.817Z,1013.3
2018-09-01T05:45:59.093Z,1013.4
2018-09-01T05:56:01.265Z,1013.5
2018-09-01T06:06:03.183Z,1013.6
2018-09-01T06:16:04.773Z,1013.7
2018-09-01T06:26:06.393Z,1013.8
2018-09-01T06:36:08.966Z,1013.8
2018-09-01T06:46:10.935Z,1013.9
2018-09-01T06:56:13.369Z,1013.9
2018-09-01T07:06:15.291Z,1014
2018-09-01T07:16:17.319Z,1014
2018-09-01T07:26:19.084Z,1014
2018-09-01T07:36:20.885Z,1014.1
2018-09-01T07:46:22.646Z,1014.1
2018-09-01T07:56:24.911Z,1014.2
2018-09-01T08:06:27.425Z,1014.3
2018-09-01T08:16:29.448Z,1014.3
2018-09-01T08:26:31.428Z,1014.4
2018-09-01T08:36:34.221Z,1014.5
2018-09-01T08:46:36.215Z,1014.5
2018-09-01T08:56:38.631Z,1014.5
2018-09-01T09:06:41.114Z,1014.5
2018-09-01T09:16:43.102Z,1014.6
2018-09-01T09:26:44.654Z,1014.6
2018-09-01T09:36:48.781Z,1014.6
2018-09-01T09:46:50.693Z,1014.6
2018-09-01T09:56:52.443Z,1014.7
2018-09-01T10:06:53.959Z,1014.7
2018-09-01T10:16:55.724Z,1014.7
2018-09-01T10:26:57.285Z,1014.7
2018-09-01T10:36:58.938Z,1014.6
2018-09-01T10:47:00.641Z,1014.4
2018-09-01T10:57:02.630Z,1014.3
2018-09-01T11:07:04.355Z,1014.3
2018-09-01T11:17:05.868Z,1014.1
2018-09-01T11:27:07.415Z,1014.1
2018-09-01T11:37:08.998Z,1014.1
2018-09-01T11:47:10.552Z,1014
2018-09-01T11:57:12.384Z,1014
2018-09-01T12:07:14.224Z,1013.8
2018-09-01T12:17:16.181Z,1014
2018-09-01T12:27:18.124Z,1013.8
2018-09-01T12:37:20.023Z,1013.8
2018-09-01T12:47:21.932Z,1013.8
2018-09-01T12:57:23.998Z,1013.7
2018-09-01T13:07:25.658Z,1013.6
2018-09-01T13:17:27.824Z,1013.6
2018-09-01T13:27:29.641Z,1013.7
2018-09-01T13:37:31.521Z,1013.7
2018-09-01T13:47:33.059Z,1013.6
2018-09-01T13:57:35.290Z,1013.6
2018-09-01T14:07:37.473Z,1013.6
2018-09-01T14:17:39.315Z,1013.7
2018-09-01T14:27:40.884Z,1013.7
2018-09-01T14:37:42.726Z,1013.6
2018-09-01T14:47:44.219Z,1013.6
2018-09-01T14:57:46.227Z,1013.5
2018-09-01T15:07:48.580Z,1013.5
2018-09-01T15:17:50.534Z,1013.5
2018-09-01T15:27:52.210Z,1013.4
2018-09-01T15:37:54.317Z,1013.4
2018-09-01T15:47:56.103Z,1013.5
2018-09-01T15:57:58.212Z,1013.4
2018-09-01T16:08:00.005Z,1013.5
2018-09-01T16:18:01.371Z,1013.5
2018-09-01T16:28:03.184Z,1013.5
2018-09-01T16:38:05.439Z,1013.4
2018-09-01T16:48:07.206Z,1013.5
2018-09-01T16:58:08.957Z,1013.6
2018-09-01T17:08:11.123Z,1013.7
2018-09-01T17:18:13.150Z,1013.8
2018-09-01T17:28:15.218Z,1013.8
2018-09-01T17:38:17.527Z,1013.8
2018-09-01T17:48:19.210Z,1013.9
2018-09-01T17:58:21.518Z,1013.9
2018-09-01T18:08:23.176Z,1013.9
2018-09-01T18:18:25.434Z,1014
2018-09-01T18:28:27.533Z,1014.1
2018-09-01T18:38:29.536Z,1014.1
2018-09-01T18:48:31.592Z,1014.2
2018-09-01T18:58:33.611Z,1014.3
2018-09-01T19:08:36.740Z,1014.3
2018-09-01T19:18:38.444Z,1014.4
2018-09-01T19:28:39.950Z,1014.5
2018-09-01T19:38:41.444Z,1014.4
2018-09-01T19:48:43.827Z,1014.4
2018-09-01T19:58:45.620Z,1014.4
2018-09-01T20:08:52.185Z,1014.5
2018-09-01T20:18:54.300Z,1014.5
2018-09-01T20:28:56.239Z,1014.5
2018-09-01T20:38:58.923Z,1014.6
2018-09-01T20:49:01.505Z,1014.6
2018-09-01T20:59:03.692Z,1014.7
2018-09-01T21:09:05.797Z,1014.8
2018-09-01T21:19:07.896Z,1014.8
2018-09-01T21:29:10.221Z,1014.9
2018-09-01T21:39:12.797Z,1014.9
2018-09-01T21:49:14.932Z,1014.9
2018-09-01T21:59:16.527Z,1015
2018-09-01T22:09:18.351Z,1014.9
2018-09-01T22:19:20.168Z,1014.9
2018-09-01T22:29:21.808Z,1015
2018-09-01T22:39:23.674Z,1015
2018-09-01T22:49:25.638Z,1015
2018-09-01T22:59:27.855Z,1014.9
2018-09-01T23:09:29.488Z,1015.1
2018-09-01T23:19:31.332Z,1014.9
2018-09-01T23:29:32.731Z,1014.9
2018-09-01T23:39:33.979Z,1014.9
2018-09-01T23:49:35.840Z,1014.9
2018-09-01T23:59:37.501Z,1015
